sensor_id;sensor_type;location;lat;lon;timestamp;P1;durP1;ratioP1;P2;durP2;ratioP2
22026;SDS011;11177;50.966;10.070;2022-08-20T00:01:09;6.07;;;4.15;;
22026;SDS011;11177;50.966;10.070;2022-08-20T00:03:38;5.20;;;4.70;;
22026;SDS011;11177;50.966;10.070;2022-08-20T00:06:14;5.53;;;4.90;;
22026;SDS011;11177;50.966;10.070;2022-08-20T00:08:44;6.07;;;4.83;;
22026;SDS011;11177;50.966;10.070;2022-08-20T00:11:13;7.55;;;4.50;;
22026;SDS011;11177;50.966;10.070;2022-08-20T00:13:44;5.35;;;4.60;;
22026;SDS011;11177;50.966;10.070;2022-08-20T00:16:13;7.93;;;4.75;;
22026;SDS011;11177;50.966;10.070;2022-08-20T00:18:42;6.75;;;5.05;;
22026;SDS011;11177;50.966;10.070;2022-08-20T00:21:10;8.25;;;4.72;;
22026;SDS011;11177;50.966;10.070;2022-08-20T00:23:45;5.13;;;4.60;;
22026;SDS011;11177;50.966;10.070;2022-08-20T00:26:14;5.38;;;4.88;;
22026;SDS011;11177;50.966;10.070;2022-08-20T00:28:41;5.85;;;5.07;;
22026;SDS011;11177;50.966;10.070;2022-08-20T00:31:09;7.43;;;5.40;;
22026;SDS011;11177;50.966;10.070;2022-08-20T00:33:37;6.35;;;5.45;;
22026;SDS011;11177;50.966;10.070;2022-08-20T00:36:05;5.80;;;5.30;;
22026;SDS011;11177;50.966;10.070;2022-08-20T00:38:35;6.90;;;5.22;;
22026;SDS011;11177;50.966;10.070;2022-08-20T00:41:04;5.97;;;4.88;;
22026;SDS011;11177;50.966;10.070;2022-08-20T00:43:40;5.80;;;5.20;;
22026;SDS011;11177;50.966;10.070;2022-08-20T00:46:14;5.90;;;5.28;;
22026;SDS011;11177;50.966;10.070;2022-08-20T00:48:45;8.35;;;5.47;;
22026;SDS011;11177;50.966;10.070;2022-08-20T00:51:20;5.60;;;5.10;;
22026;SDS011;11177;50.966;10.070;2022-08-20T00:57:12;7.80;;;5.40;;
22026;SDS011;11177;50.966;10.070;2022-08-20T00:59:42;5.60;;;5.10;;
22026;SDS011;11177;50.966;10.070;2022-08-20T01:02:11;8.88;;;5.10;;
22026;SDS011;11177;50.966;10.070;2022-08-20T01:04:39;7.15;;;5.28;;
22026;SDS011;11177;50.966;10.070;2022-08-20T01:07:09;6.10;;;5.20;;
22026;SDS011;11177;50.966;10.070;2022-08-20T01:09:37;6.32;;;5.72;;
22026;SDS011;11177;50.966;10.070;2022-08-20T01:12:24;5.72;;;5.20;;
22026;SDS011;11177;50.966;10.070;2022-08-20T01:14:52;5.68;;;5.18;;
22026;SDS011;11177;50.966;10.070;2022-08-20T01:17:22;7.22;;;4.90;;
22026;SDS011;11177;50.966;10.070;2022-08-20T01:19:52;6.25;;;4.95;;
22026;SDS011;11177;50.966;10.070;2022-08-20T01:22:27;6.30;;;5.28;;
22026;SDS011;11177;50.966;10.070;2022-08-20T01:25:26;8.63;;;5.57;;
22026;SDS011;11177;50.966;10.070;2022-08-20T01:28:04;5.50;;;5.00;;
22026;SDS011;11177;50.966;10.070;2022-08-20T01:30:32;5.82;;;5.18;;
22026;SDS011;11177;50.966;10.070;2022-08-20T01:32:59;5.57;;;5.00;;
22026;SDS011;11177;50.966;10.070;2022-08-20T01:35:28;5.88;;;5.00;;
22026;SDS011;11177;50.966;10.070;2022-08-20T01:37:57;7.85;;;5.15;;
22026;SDS011;11177;50.966;10.070;2022-08-20T01:40:46;6.53;;;5.22;;
22026;SDS011;11177;50.966;10.070;2022-08-20T01:43:37;5.55;;;5.15;;
22026;SDS011;11177;50.966;10.070;2022-08-20T01:46:07;5.85;;;5.30;;
22026;SDS011;11177;50.966;10.070;2022-08-20T01:48:36;7.60;;;5.40;;
22026;SDS011;11177;50.966;10.070;2022-08-20T01:51:09;5.68;;;5.00;;
22026;SDS011;11177;50.966;10.070;2022-08-20T01:53:46;5.65;;;4.97;;
22026;SDS011;11177;50.966;10.070;2022-08-20T01:56:17;7.97;;;4.85;;
22026;SDS011;11177;50.966;10.070;2022-08-20T01:58:48;6.00;;;5.00;;
22026;SDS011;11177;50.966;10.070;2022-08-20T02:01:38;5.35;;;4.85;;
22026;SDS011;11177;50.966;10.070;2022-08-20T02:04:11;5.65;;;5.15;;
22026;SDS011;11177;50.966;10.070;2022-08-20T02:06:42;6.97;;;5.30;;
22026;SDS011;11177;50.966;10.070;2022-08-20T02:09:23;5.97;;;5.20;;
22026;SDS011;11177;50.966;10.070;2022-08-20T02:11:57;6.20;;;5.60;;
22026;SDS011;11177;50.966;10.070;2022-08-20T02:14:24;5.32;;;4.82;;
22026;SDS011;11177;50.966;10.070;2022-08-20T02:16:54;5.57;;;5.07;;
22026;SDS011;11177;50.966;10.070;2022-08-20T02:19:34;6.00;;;5.50;;
22026;SDS011;11177;50.966;10.070;2022-08-20T02:22:10;6.63;;;5.38;;
22026;SDS011;11177;50.966;10.070;2022-08-20T02:24:42;6.63;;;5.32;;
22026;SDS011;11177;50.966;10.070;2022-08-20T02:27:09;5.50;;;5.00;;
22026;SDS011;11177;50.966;10.070;2022-08-20T02:29:37;6.47;;;5.78;;
22026;SDS011;11177;50.966;10.070;2022-08-20T02:32:05;6.07;;;5.47;;
22026;SDS011;11177;50.966;10.070;2022-08-20T02:34:53;5.53;;;4.97;;
22026;SDS011;11177;50.966;10.070;2022-08-20T02:37:20;5.85;;;5.35;;
22026;SDS011;11177;50.966;10.070;2022-08-20T02:39:47;5.80;;;5.30;;
22026;SDS011;11177;50.966;10.070;2022-08-20T02:42:14;6.93;;;5.15;;
22026;SDS011;11177;50.966;10.070;2022-08-20T02:44:42;8.68;;;5.38;;
22026;SDS011;11177;50.966;10.070;2022-08-20T02:47:09;6.05;;;5.53;;
22026;SDS011;11177;50.966;10.070;2022-08-20T02:49:36;6.80;;;6.07;;
22026;SDS011;11177;50.966;10.070;2022-08-20T02:52:03;6.05;;;5.53;;
22026;SDS011;11177;50.966;10.070;2022-08-20T02:54:30;6.80;;;6.05;;
22026;SDS011;11177;50.966;10.070;2022-08-20T02:56:57;6.15;;;5.55;;
22026;SDS011;11177;50.966;10.070;2022-08-20T02:59:24;7.85;;;5.63;;
22026;SDS011;11177;50.966;10.070;2022-08-20T03:01:52;6.35;;;5.75;;
22026;SDS011;11177;50.966;10.070;2022-08-20T03:04:26;6.20;;;5.60;;
22026;SDS011;11177;50.966;10.070;2022-08-20T03:06:53;5.95;;;5.35;;
22026;SDS011;11177;50.966;10.070;2022-08-20T03:09:20;6.75;;;5.28;;
22026;SDS011;11177;50.966;10.070;2022-08-20T03:11:47;6.35;;;5.10;;
22026;SDS011;11177;50.966;10.070;2022-08-20T03:14:14;7.10;;;5.22;;
22026;SDS011;11177;50.966;10.070;2022-08-20T03:16:42;5.35;;;4.72;;
22026;SDS011;11177;50.966;10.070;2022-08-20T03:19:09;7.38;;;5.30;;
22026;SDS011;11177;50.966;10.070;2022-08-20T03:21:35;7.97;;;5.50;;
22026;SDS011;11177;50.966;10.070;2022-08-20T03:24:02;7.28;;;5.30;;
22026;SDS011;11177;50.966;10.070;2022-08-20T03:26:30;6.30;;;5.70;;
22026;SDS011;11177;50.966;10.070;2022-08-20T03:28:57;7.68;;;5.72;;
22026;SDS011;11177;50.966;10.070;2022-08-20T03:31:24;8.05;;;6.47;;
22026;SDS011;11177;50.966;10.070;2022-08-20T03:33:51;10.60;;;7.82;;
22026;SDS011;11177;50.966;10.070;2022-08-20T03:36:20;7.78;;;6.97;;
22026;SDS011;11177;50.966;10.070;2022-08-20T03:38:58;8.35;;;7.35;;
22026;SDS011;11177;50.966;10.070;2022-08-20T03:41:26;9.93;;;7.15;;
22026;SDS011;11177;50.966;10.070;2022-08-20T03:43:54;8.00;;;7.20;;
22026;SDS011;11177;50.966;10.070;2022-08-20T03:46:21;9.52;;;7.43;;
22026;SDS011;11177;50.966;10.070;2022-08-20T03:48:50;9.60;;;7.30;;
22026;SDS011;11177;50.966;10.070;2022-08-20T03:51:27;7.53;;;6.72;;
22026;SDS011;11177;50.966;10.070;2022-08-20T03:53:54;7.65;;;6.65;;
22026;SDS011;11177;50.966;10.070;2022-08-20T03:56:22;6.95;;;6.25;;
22026;SDS011;11177;50.966;10.070;2022-08-20T03:58:48;7.10;;;6.40;;
22026;SDS011;11177;50.966;10.070;2022-08-20T04:01:15;6.80;;;6.20;;
22026;SDS011;11177;50.966;10.070;2022-08-20T04:04:03;6.90;;;6.30;;
22026;SDS011;11177;50.966;10.070;2022-08-20T04:06:29;6.88;;;6.18;;
22026;SDS011;11177;50.966;10.070;2022-08-20T04:08:56;7.00;;;6.15;;
22026;SDS011;11177;50.966;10.070;2022-08-20T04:11:23;7.50;;;6.32;;
22026;SDS011;11177;50.966;10.070;2022-08-20T04:13:50;7.40;;;6.35;;
22026;SDS011;11177;50.966;10.070;2022-08-20T04:16:17;7.88;;;6.22;;
22026;SDS011;11177;50.966;10.070;2022-08-20T04:18:45;9.20;;;6.55;;
22026;SDS011;11177;50.966;10.070;2022-08-20T04:21:28;7.65;;;6.18;;
22026;SDS011;11177;50.966;10.070;2022-08-20T04:23:59;9.48;;;6.55;;
22026;SDS011;11177;50.966;10.070;2022-08-20T04:26:27;7.53;;;6.68;;
22026;SDS011;11177;50.966;10.070;2022-08-20T04:28:53;9.25;;;6.85;;
22026;SDS011;11177;50.966;10.070;2022-08-20T04:31:21;7.82;;;6.90;;
22026;SDS011;11177;50.966;10.070;2022-08-20T04:34:00;7.55;;;6.85;;
22026;SDS011;11177;50.966;10.070;2022-08-20T04:36:27;7.63;;;6.88;;
22026;SDS011;11177;50.966;10.070;2022-08-20T04:38:55;10.38;;;7.20;;
22026;SDS011;11177;50.966;10.070;2022-08-20T04:41:22;9.73;;;7.20;;
22026;SDS011;11177;50.966;10.070;2022-08-20T04:43:54;7.70;;;7.00;;
22026;SDS011;11177;50.966;10.070;2022-08-20T04:46:23;11.52;;;7.13;;
22026;SDS011;11177;50.966;10.070;2022-08-20T04:48:51;8.40;;;7.55;;
22026;SDS011;11177;50.966;10.070;2022-08-20T04:51:19;11.02;;;7.20;;
22026;SDS011;11177;50.966;10.070;2022-08-20T04:53:49;9.70;;;7.07;;
22026;SDS011;11177;50.966;10.070;2022-08-20T04:56:20;9.27;;;7.40;;
22026;SDS011;11177;50.966;10.070;2022-08-20T04:58:49;9.82;;;7.80;;
22026;SDS011;11177;50.966;10.070;2022-08-20T05:01:17;10.00;;;8.13;;
22026;SDS011;11177;50.966;10.070;2022-08-20T05:03:45;12.60;;;8.25;;
22026;SDS011;11177;50.966;10.070;2022-08-20T05:06:15;10.15;;;7.93;;
22026;SDS011;11177;50.966;10.070;2022-08-20T05:08:43;11.07;;;8.43;;
22026;SDS011;11177;50.966;10.070;2022-08-20T05:11:11;10.00;;;8.23;;
22026;SDS011;11177;50.966;10.070;2022-08-20T05:13:59;11.57;;;9.40;;
22026;SDS011;11177;50.966;10.070;2022-08-20T05:16:26;11.50;;;10.18;;
22026;SDS011;11177;50.966;10.070;2022-08-20T05:18:54;10.93;;;9.18;;
22026;SDS011;11177;50.966;10.070;2022-08-20T05:21:20;9.82;;;8.82;;
22026;SDS011;11177;50.966;10.070;2022-08-20T05:23:47;13.52;;;9.60;;
22026;SDS011;11177;50.966;10.070;2022-08-20T05:26:15;12.07;;;9.15;;
22026;SDS011;11177;50.966;10.070;2022-08-20T05:28:42;13.38;;;9.80;;
22026;SDS011;11177;50.966;10.070;2022-08-20T05:31:28;18.38;;;10.43;;
22026;SDS011;11177;50.966;10.070;2022-08-20T05:33:58;12.97;;;9.60;;
22026;SDS011;11177;50.966;10.070;2022-08-20T05:36:37;13.20;;;8.63;;
22026;SDS011;11177;50.966;10.070;2022-08-20T05:39:05;14.32;;;10.27;;
22026;SDS011;11177;50.966;10.070;2022-08-20T05:41:32;16.85;;;10.82;;
22026;SDS011;11177;50.966;10.070;2022-08-20T05:43:59;13.68;;;9.93;;
22026;SDS011;11177;50.966;10.070;2022-08-20T05:46:27;14.02;;;10.10;;
22026;SDS011;11177;50.966;10.070;2022-08-20T05:48:58;14.38;;;10.57;;
22026;SDS011;11177;50.966;10.070;2022-08-20T05:51:28;13.82;;;10.75;;
22026;SDS011;11177;50.966;10.070;2022-08-20T05:53:55;14.90;;;10.25;;
22026;SDS011;11177;50.966;10.070;2022-08-20T05:56:25;14.70;;;10.30;;
22026;SDS011;11177;50.966;10.070;2022-08-20T05:58:57;15.30;;;11.05;;
22026;SDS011;11177;50.966;10.070;2022-08-20T06:01:27;14.65;;;10.60;;
22026;SDS011;11177;50.966;10.070;2022-08-20T06:03:54;11.38;;;9.45;;
22026;SDS011;11177;50.966;10.070;2022-08-20T06:06:40;14.50;;;10.40;;
22026;SDS011;11177;50.966;10.070;2022-08-20T06:09:12;15.38;;;10.48;;
22026;SDS011;11177;50.966;10.070;2022-08-20T06:11:40;11.43;;;9.63;;
22026;SDS011;11177;50.966;10.070;2022-08-20T06:14:06;13.40;;;10.73;;
22026;SDS011;11177;50.966;10.070;2022-08-20T06:16:34;12.20;;;9.73;;
22026;SDS011;11177;50.966;10.070;2022-08-20T06:19:03;11.90;;;9.30;;
22026;SDS011;11177;50.966;10.070;2022-08-20T06:21:31;13.60;;;9.65;;
22026;SDS011;11177;50.966;10.070;2022-08-20T06:23:58;11.50;;;9.75;;
22026;SDS011;11177;50.966;10.070;2022-08-20T06:26:28;13.55;;;10.02;;
22026;SDS011;11177;50.966;10.070;2022-08-20T06:29:00;12.90;;;10.40;;
22026;SDS011;11177;50.966;10.070;2022-08-20T06:31:28;14.57;;;9.75;;
22026;SDS011;11177;50.966;10.070;2022-08-20T06:33:55;12.93;;;10.82;;
22026;SDS011;11177;50.966;10.070;2022-08-20T06:36:22;12.88;;;10.52;;
22026;SDS011;11177;50.966;10.070;2022-08-20T06:38:50;16.70;;;11.32;;
22026;SDS011;11177;50.966;10.070;2022-08-20T06:41:17;15.80;;;11.32;;
22026;SDS011;11177;50.966;10.070;2022-08-20T06:43:44;15.20;;;10.95;;
22026;SDS011;11177;50.966;10.070;2022-08-20T06:46:12;17.10;;;10.95;;
22026;SDS011;11177;50.966;10.070;2022-08-20T06:48:40;15.38;;;10.88;;
22026;SDS011;11177;50.966;10.070;2022-08-20T06:51:07;14.15;;;10.05;;
22026;SDS011;11177;50.966;10.070;2022-08-20T06:53:35;15.27;;;10.75;;
22026;SDS011;11177;50.966;10.070;2022-08-20T06:56:02;12.20;;;10.55;;
22026;SDS011;11177;50.966;10.070;2022-08-20T06:58:29;11.75;;;10.02;;
22026;SDS011;11177;50.966;10.070;2022-08-20T07:01:07;14.80;;;11.35;;
22026;SDS011;11177;50.966;10.070;2022-08-20T07:03:40;17.88;;;12.13;;
22026;SDS011;11177;50.966;10.070;2022-08-20T07:06:22;15.65;;;11.18;;
22026;SDS011;11177;50.966;10.070;2022-08-20T07:08:51;15.35;;;11.00;;
22026;SDS011;11177;50.966;10.070;2022-08-20T07:11:19;15.63;;;11.85;;
22026;SDS011;11177;50.966;10.070;2022-08-20T07:16:22;21.08;;;14.27;;
22026;SDS011;11177;50.966;10.070;2022-08-20T07:18:49;20.23;;;15.15;;
22026;SDS011;11177;50.966;10.070;2022-08-20T07:21:16;19.90;;;13.25;;
22026;SDS011;11177;50.966;10.070;2022-08-20T07:23:44;19.45;;;14.10;;
22026;SDS011;11177;50.966;10.070;2022-08-20T07:26:11;28.30;;;15.77;;
22026;SDS011;11177;50.966;10.070;2022-08-20T07:28:39;22.40;;;15.15;;
22026;SDS011;11177;50.966;10.070;2022-08-20T07:31:06;25.13;;;15.38;;
22026;SDS011;11177;50.966;10.070;2022-08-20T07:33:56;22.52;;;15.73;;
22026;SDS011;11177;50.966;10.070;2022-08-20T07:36:25;29.30;;;16.52;;
22026;SDS011;11177;50.966;10.070;2022-08-20T07:38:53;23.33;;;16.42;;
22026;SDS011;11177;50.966;10.070;2022-08-20T07:41:22;21.88;;;16.63;;
22026;SDS011;11177;50.966;10.070;2022-08-20T07:43:49;26.55;;;15.70;;
22026;SDS011;11177;50.966;10.070;2022-08-20T07:46:16;22.48;;;15.18;;
22026;SDS011;11177;50.966;10.070;2022-08-20T07:48:47;21.63;;;15.82;;
22026;SDS011;11177;50.966;10.070;2022-08-20T07:51:17;21.33;;;15.05;;
22026;SDS011;11177;50.966;10.070;2022-08-20T07:53:45;19.63;;;15.02;;
22026;SDS011;11177;50.966;10.070;2022-08-20T07:56:14;21.52;;;14.75;;
22026;SDS011;11177;50.966;10.070;2022-08-20T07:58:44;20.77;;;15.20;;
22026;SDS011;11177;50.966;10.070;2022-08-20T08:01:16;19.35;;;14.43;;
22026;SDS011;11177;50.966;10.070;2022-08-20T08:03:51;15.80;;;11.65;;
22026;SDS011;11177;50.966;10.070;2022-08-20T08:06:19;16.20;;;10.60;;
22026;SDS011;11177;50.966;10.070;2022-08-20T08:08:55;15.43;;;9.18;;
22026;SDS011;11177;50.966;10.070;2022-08-20T08:11:24;11.25;;;9.40;;
22026;SDS011;11177;50.966;10.070;2022-08-20T08:13:51;15.35;;;9.85;;
22026;SDS011;11177;50.966;10.070;2022-08-20T08:16:18;19.65;;;10.40;;
22026;SDS011;11177;50.966;10.070;2022-08-20T08:18:48;22.88;;;10.68;;
22026;SDS011;11177;50.966;10.070;2022-08-20T08:21:16;27.10;;;10.88;;
22026;SDS011;11177;50.966;10.070;2022-08-20T08:23:47;27.77;;;12.18;;
22026;SDS011;11177;50.966;10.070;2022-08-20T08:26:15;21.02;;;13.65;;
22026;SDS011;11177;50.966;10.070;2022-08-20T08:28:44;21.85;;;15.10;;
22026;SDS011;11177;50.966;10.070;2022-08-20T08:31:16;30.92;;;15.85;;
22026;SDS011;11177;50.966;10.070;2022-08-20T08:33:43;19.83;;;15.18;;
22026;SDS011;11177;50.966;10.070;2022-08-20T08:36:11;18.65;;;13.27;;
22026;SDS011;11177;50.966;10.070;2022-08-20T08:38:41;17.75;;;14.27;;
22026;SDS011;11177;50.966;10.070;2022-08-20T08:41:20;19.77;;;12.60;;
22026;SDS011;11177;50.966;10.070;2022-08-20T08:43:56;22.55;;;13.18;;
22026;SDS011;11177;50.966;10.070;2022-08-20T08:46:30;16.98;;;12.23;;
22026;SDS011;11177;50.966;10.070;2022-08-20T08:48:58;15.30;;;12.02;;
22026;SDS011;11177;50.966;10.070;2022-08-20T08:51:29;15.20;;;11.98;;
22026;SDS011;11177;50.966;10.070;2022-08-20T08:54:04;17.35;;;11.57;;
22026;SDS011;11177;50.966;10.070;2022-08-20T08:56:32;14.27;;;12.35;;
22026;SDS011;11177;50.966;10.070;2022-08-20T08:59:03;19.15;;;13.85;;
22026;SDS011;11177;50.966;10.070;2022-08-20T09:01:40;32.58;;;14.65;;
22026;SDS011;11177;50.966;10.070;2022-08-20T09:04:22;43.80;;;14.35;;
22026;SDS011;11177;50.966;10.070;2022-08-20T09:07:00;17.88;;;13.80;;
22026;SDS011;11177;50.966;10.070;2022-08-20T09:09:30;16.85;;;13.55;;
22026;SDS011;11177;50.966;10.070;2022-08-20T09:12:08;30.92;;;13.73;;
22026;SDS011;11177;50.966;10.070;2022-08-20T09:14:37;54.95;;;14.30;;
22026;SDS011;11177;50.966;10.070;2022-08-20T09:17:04;20.63;;;12.73;;
22026;SDS011;11177;50.966;10.070;2022-08-20T09:19:32;33.13;;;13.13;;
22026;SDS011;11177;50.966;10.070;2022-08-20T09:22:05;21.75;;;12.63;;
22026;SDS011;11177;50.966;10.070;2022-08-20T09:24:33;22.73;;;12.60;;
22026;SDS011;11177;50.966;10.070;2022-08-20T09:27:00;22.13;;;12.48;;
22026;SDS011;11177;50.966;10.070;2022-08-20T09:29:27;14.70;;;11.27;;
22026;SDS011;11177;50.966;10.070;2022-08-20T09:32:04;12.88;;;11.45;;
22026;SDS011;11177;50.966;10.070;2022-08-20T09:34:36;11.57;;;10.38;;
22026;SDS011;11177;50.966;10.070;2022-08-20T09:37:07;13.00;;;10.88;;
22026;SDS011;11177;50.966;10.070;2022-08-20T09:39:35;18.38;;;11.27;;
22026;SDS011;11177;50.966;10.070;2022-08-20T09:42:06;13.50;;;10.40;;
22026;SDS011;11177;50.966;10.070;2022-08-20T09:44:37;11.95;;;10.43;;
22026;SDS011;11177;50.966;10.070;2022-08-20T09:47:05;14.98;;;9.55;;
22026;SDS011;11177;50.966;10.070;2022-08-20T09:49:31;11.13;;;9.43;;
22026;SDS011;11177;50.966;10.070;2022-08-20T09:51:59;15.00;;;9.20;;
22026;SDS011;11177;50.966;10.070;2022-08-20T09:54:27;10.77;;;8.07;;
22026;SDS011;11177;50.966;10.070;2022-08-20T09:56:57;8.68;;;7.68;;
22026;SDS011;11177;50.966;10.070;2022-08-20T09:59:24;8.18;;;7.10;;
22026;SDS011;11177;50.966;10.070;2022-08-20T10:01:51;5.55;;;4.55;;
22026;SDS011;11177;50.966;10.070;2022-08-20T10:04:18;6.90;;;4.55;;
22026;SDS011;11177;50.966;10.070;2022-08-20T10:06:45;13.52;;;4.75;;
22026;SDS011;11177;50.966;10.070;2022-08-20T10:09:12;4.97;;;4.47;;
22026;SDS011;11177;50.966;10.070;2022-08-20T10:11:40;4.72;;;4.00;;
22026;SDS011;11177;50.966;10.070;2022-08-20T10:14:07;5.40;;;4.13;;
22026;SDS011;11177;50.966;10.070;2022-08-20T10:16:37;5.32;;;4.50;;
22026;SDS011;11177;50.966;10.070;2022-08-20T10:19:04;5.40;;;4.07;;
22026;SDS011;11177;50.966;10.070;2022-08-20T10:21:31;6.95;;;4.90;;
22026;SDS011;11177;50.966;10.070;2022-08-20T10:24:03;5.28;;;4.78;;
22026;SDS011;11177;50.966;10.070;2022-08-20T10:26:36;8.23;;;4.82;;
22026;SDS011;11177;50.966;10.070;2022-08-20T10:29:03;4.55;;;4.15;;
22026;SDS011;11177;50.966;10.070;2022-08-20T10:31:30;5.38;;;4.85;;
22026;SDS011;11177;50.966;10.070;2022-08-20T10:33:57;6.80;;;4.60;;
22026;SDS011;11177;50.966;10.070;2022-08-20T10:36:24;5.38;;;4.47;;
22026;SDS011;11177;50.966;10.070;2022-08-20T10:38:51;5.40;;;4.80;;
22026;SDS011;11177;50.966;10.070;2022-08-20T10:41:18;8.98;;;4.68;;
22026;SDS011;11177;50.966;10.070;2022-08-20T10:43:45;5.07;;;4.60;;
22026;SDS011;11177;50.966;10.070;2022-08-20T10:46:12;5.80;;;5.18;;
22026;SDS011;11177;50.966;10.070;2022-08-20T10:48:39;4.97;;;4.57;;
22026;SDS011;11177;50.966;10.070;2022-08-20T10:51:06;5.32;;;4.82;;
22026;SDS011;11177;50.966;10.070;2022-08-20T10:53:33;5.28;;;4.80;;
22026;SDS011;11177;50.966;10.070;2022-08-20T10:56:00;8.75;;;5.55;;
22026;SDS011;11177;50.966;10.070;2022-08-20T10:58:27;5.57;;;4.80;;
22026;SDS011;11177;50.966;10.070;2022-08-20T11:01:05;4.88;;;3.85;;
22026;SDS011;11177;50.966;10.070;2022-08-20T11:03:33;3.83;;;3.40;;
22026;SDS011;11177;50.966;10.070;2022-08-20T11:06:01;8.25;;;3.92;;
22026;SDS011;11177;50.966;10.070;2022-08-20T11:08:27;10.13;;;3.80;;
22026;SDS011;11177;50.966;10.070;2022-08-20T11:11:00;11.73;;;4.30;;
22026;SDS011;11177;50.966;10.070;2022-08-20T11:13:27;3.72;;;3.00;;
22026;SDS011;11177;50.966;10.070;2022-08-20T11:15:54;6.55;;;3.00;;
22026;SDS011;11177;50.966;10.070;2022-08-20T11:18:21;2.97;;;2.78;;
22026;SDS011;11177;50.966;10.070;2022-08-20T11:20:48;15.20;;;3.17;;
22026;SDS011;11177;50.966;10.070;2022-08-20T11:23:15;5.05;;;2.80;;
22026;SDS011;11177;50.966;10.070;2022-08-20T11:25:41;4.18;;;2.80;;
22026;SDS011;11177;50.966;10.070;2022-08-20T11:28:09;3.40;;;2.08;;
22026;SDS011;11177;50.966;10.070;2022-08-20T11:30:37;2.75;;;2.55;;
22026;SDS011;11177;50.966;10.070;2022-08-20T11:33:04;8.07;;;2.50;;
22026;SDS011;11177;50.966;10.070;2022-08-20T11:35:33;1.70;;;1.60;;
22026;SDS011;11177;50.966;10.070;2022-08-20T11:38:14;1.80;;;1.70;;
22026;SDS011;11177;50.966;10.070;2022-08-20T11:40:42;6.32;;;1.65;;
22026;SDS011;11177;50.966;10.070;2022-08-20T11:43:09;1.33;;;1.25;;
22026;SDS011;11177;50.966;10.070;2022-08-20T11:45:41;1.67;;;1.58;;
22026;SDS011;11177;50.966;10.070;2022-08-20T11:48:09;1.95;;;1.50;;
22026;SDS011;11177;50.966;10.070;2022-08-20T11:50:36;3.08;;;1.63;;
22026;SDS011;11177;50.966;10.070;2022-08-20T11:53:03;2.58;;;1.80;;
22026;SDS011;11177;50.966;10.070;2022-08-20T11:55:33;1.50;;;1.40;;
22026;SDS011;11177;50.966;10.070;2022-08-20T11:58:00;1.58;;;1.48;;
22026;SDS011;11177;50.966;10.070;2022-08-20T12:00:27;1.45;;;1.35;;
22026;SDS011;11177;50.966;10.070;2022-08-20T12:02:59;1.20;;;1.20;;
22026;SDS011;11177;50.966;10.070;2022-08-20T12:05:26;2.55;;;1.40;;
22026;SDS011;11177;50.966;10.070;2022-08-20T12:07:56;1.33;;;1.23;;
22026;SDS011;11177;50.966;10.070;2022-08-20T12:10:23;6.25;;;1.30;;
22026;SDS011;11177;50.966;10.070;2022-08-20T12:12:52;1.83;;;1.70;;
22026;SDS011;11177;50.966;10.070;2022-08-20T12:15:19;1.30;;;1.20;;
22026;SDS011;11177;50.966;10.070;2022-08-20T12:17:46;1.20;;;1.20;;
22026;SDS011;11177;50.966;10.070;2022-08-20T12:20:13;1.70;;;1.10;;
22026;SDS011;11177;50.966;10.070;2022-08-20T12:22:41;8.10;;;1.60;;
22026;SDS011;11177;50.966;10.070;2022-08-20T12:25:09;2.95;;;1.20;;
22026;SDS011;11177;50.966;10.070;2022-08-20T12:27:37;1.20;;;1.20;;
22026;SDS011;11177;50.966;10.070;2022-08-20T12:30:06;6.68;;;1.52;;
22026;SDS011;11177;50.966;10.070;2022-08-20T12:32:35;11.75;;;2.13;;
22026;SDS011;11177;50.966;10.070;2022-08-20T12:35:03;2.72;;;1.45;;
22026;SDS011;11177;50.966;10.070;2022-08-20T12:37:32;7.13;;;1.65;;
22026;SDS011;11177;50.966;10.070;2022-08-20T12:40:00;2.35;;;1.48;;
22026;SDS011;11177;50.966;10.070;2022-08-20T12:42:30;3.88;;;1.42;;
22026;SDS011;11177;50.966;10.070;2022-08-20T12:44:57;4.45;;;1.30;;
22026;SDS011;11177;50.966;10.070;2022-08-20T12:47:26;1.50;;;1.20;;
22026;SDS011;11177;50.966;10.070;2022-08-20T12:50:03;2.00;;;1.30;;
22026;SDS011;11177;50.966;10.070;2022-08-20T12:52:39;1.10;;;1.10;;
22026;SDS011;11177;50.966;10.070;2022-08-20T12:55:06;3.38;;;0.93;;
22026;SDS011;11177;50.966;10.070;2022-08-20T12:57:39;1.42;;;1.33;;
22026;SDS011;11177;50.966;10.070;2022-08-20T13:00:18;1.45;;;1.25;;
22026;SDS011;11177;50.966;10.070;2022-08-20T13:02:50;2.05;;;1.30;;
22026;SDS011;11177;50.966;10.070;2022-08-20T13:05:21;3.90;;;1.20;;
22026;SDS011;11177;50.966;10.070;2022-08-20T13:07:49;4.95;;;1.40;;
22026;SDS011;11177;50.966;10.070;2022-08-20T13:10:18;1.23;;;1.13;;
22026;SDS011;11177;50.966;10.070;2022-08-20T13:12:48;21.55;;;1.67;;
22026;SDS011;11177;50.966;10.070;2022-08-20T13:15:15;7.35;;;1.60;;
22026;SDS011;11177;50.966;10.070;2022-08-20T13:17:42;2.92;;;1.35;;
22026;SDS011;11177;50.966;10.070;2022-08-20T13:20:12;8.52;;;1.48;;
22026;SDS011;11177;50.966;10.070;2022-08-20T13:22:41;3.92;;;1.10;;
22026;SDS011;11177;50.966;10.070;2022-08-20T13:25:08;7.78;;;1.15;;
22026;SDS011;11177;50.966;10.070;2022-08-20T13:27:36;5.28;;;1.10;;
22026;SDS011;11177;50.966;10.070;2022-08-20T13:30:06;3.17;;;1.02;;
22026;SDS011;11177;50.966;10.070;2022-08-20T13:32:34;12.27;;;1.17;;
22026;SDS011;11177;50.966;10.070;2022-08-20T13:35:02;8.85;;;1.88;;
22026;SDS011;11177;50.966;10.070;2022-08-20T13:37:29;3.30;;;0.90;;
22026;SDS011;11177;50.966;10.070;2022-08-20T13:39:57;2.60;;;1.05;;
22026;SDS011;11177;50.966;10.070;2022-08-20T13:42:25;3.70;;;1.15;;
22026;SDS011;11177;50.966;10.070;2022-08-20T13:44:52;8.18;;;1.20;;
22026;SDS011;11177;50.966;10.070;2022-08-20T13:47:25;6.85;;;1.60;;
22026;SDS011;11177;50.966;10.070;2022-08-20T13:50:14;18.60;;;1.77;;
22026;SDS011;11177;50.966;10.070;2022-08-20T13:52:42;2.60;;;1.65;;
22026;SDS011;11177;50.966;10.070;2022-08-20T13:55:12;2.00;;;1.67;;
22026;SDS011;11177;50.966;10.070;2022-08-20T13:57:42;4.75;;;1.50;;
22026;SDS011;11177;50.966;10.070;2022-08-20T14:00:11;10.63;;;2.25;;
22026;SDS011;11177;50.966;10.070;2022-08-20T14:02:53;15.77;;;2.97;;
22026;SDS011;11177;50.966;10.070;2022-08-20T14:05:20;20.95;;;2.17;;
22026;SDS011;11177;50.966;10.070;2022-08-20T14:07:48;7.15;;;1.30;;
22026;SDS011;11177;50.966;10.070;2022-08-20T14:10:18;5.45;;;1.33;;
22026;SDS011;11177;50.966;10.070;2022-08-20T14:12:51;2.08;;;1.35;;
22026;SDS011;11177;50.966;10.070;2022-08-20T14:15:25;6.43;;;1.30;;
22026;SDS011;11177;50.966;10.070;2022-08-20T14:17:53;7.20;;;1.10;;
22026;SDS011;11177;50.966;10.070;2022-08-20T14:20:23;6.85;;;1.27;;
22026;SDS011;11177;50.966;10.070;2022-08-20T14:22:54;4.97;;;1.00;;
22026;SDS011;11177;50.966;10.070;2022-08-20T14:25:22;2.30;;;1.00;;
22026;SDS011;11177;50.966;10.070;2022-08-20T14:27:50;5.00;;;1.10;;
22026;SDS011;11177;50.966;10.070;2022-08-20T14:30:22;26.23;;;2.15;;
22026;SDS011;11177;50.966;10.070;2022-08-20T14:32:50;13.75;;;1.88;;
22026;SDS011;11177;50.966;10.070;2022-08-20T14:35:18;6.85;;;1.42;;
22026;SDS011;11177;50.966;10.070;2022-08-20T14:37:46;1.23;;;1.10;;
22026;SDS011;11177;50.966;10.070;2022-08-20T14:40:16;1.90;;;1.20;;
22026;SDS011;11177;50.966;10.070;2022-08-20T14:42:43;2.38;;;1.15;;
22026;SDS011;11177;50.966;10.070;2022-08-20T14:45:17;3.30;;;1.23;;
22026;SDS011;11177;50.966;10.070;2022-08-20T14:47:49;20.98;;;1.92;;